Bangui, Central African Republic
Current Conditions -  °F | °C
As of 6:00 PM on Wednesday 28 Jan 2015 (Local Time) from FEFF Reporting Station
Broken Clouds Broken Clouds  
Wind Chill: 30°   Ceiling: 30000
Heat Index: 34°   Visibility: 6mi
Dew Point: 23°   Wind: 7mph
Humidity: 66%   Direction: 180°S
Pressure: 29.74"   Gusts: NA
Location:  4.36°N, 18.56°E
Report Text: FEFF 281700Z 18006KT 9999 FEW040CB BKN300 30/23 Q1007 NOSIG
Loading
Personal Weather Stations






























Interactive Weather Map New forecast layout! Learn more

10-Day Weather Forecast

Advertisements
Track Severe Weather on mobile